Time;durP1;ratioP1;P1;durP2;ratioP2;P2;SDS_P1;SDS_P2;PMS_P1;PMS_P2;Temp;Humidity;BMP_temperature;BMP_pressure;BME280_temperature;BME280_humidity;BME280_pressure;Samples;Min_cycle;Max_cycle;Signal;HPM_P1;HPM_P2
2022/04/01 00:00:13;;;;;;;8.43;3.67;;;0.80;99.90;;;;;;4844616;29;20132;-94
2022/04/01 00:02:39;;;;;;;9.43;3.63;;;0.80;99.90;;;;;;4858322;29;20044;-91
2022/04/01 00:05:06;;;;;;;9.20;3.63;;;0.80;99.90;;;;;;4882291;29;20045;-94
2022/04/01 00:07:32;;;;;;;7.00;2.92;;;0.70;99.90;;;;;;4861130;29;20106;-94
2022/04/01 00:09:59;;;;;;;9.10;3.55;;;0.80;99.90;;;;;;4882466;29;20049;-93
2022/04/01 00:12:25;;;;;;;8.07;3.42;;;0.70;99.90;;;;;;4863646;29;20060;-95
2022/04/01 00:14:51;;;;;;;8.93;3.40;;;0.70;99.90;;;;;;4860455;29;20049;-96
2022/04/01 00:17:17;;;;;;;8.15;3.28;;;0.70;99.90;;;;;;4832233;29;20487;-93
2022/04/01 00:19:42;;;;;;;7.70;3.33;;;0.70;99.90;;;;;;4864629;29;20599;-93
2022/04/01 00:22:08;;;;;;;7.75;2.42;;;0.70;99.90;;;;;;4852312;29;20109;-95
2022/04/01 00:24:34;;;;;;;8.43;2.67;;;0.70;99.90;;;;;;4839808;29;20053;-94
2022/04/01 00:27:00;;;;;;;7.20;2.65;;;0.70;99.90;;;;;;4850344;29;20329;-93
2022/04/01 00:29:26;;;;;;;7.50;2.58;;;0.80;99.90;;;;;;4865155;29;20044;-95
2022/04/01 00:32:01;;;;;;;8.63;2.85;;;0.70;99.90;;;;;;4852000;29;20509;-92
2022/04/01 00:34:28;;;;;;;8.07;2.58;;;0.60;99.90;;;;;;4874401;29;20041;-95
2022/04/01 00:36:55;;;;;;;7.18;2.63;;;0.70;99.90;;;;;;4856332;29;20082;-95
2022/04/01 00:39:23;;;;;;;7.95;2.10;;;0.70;99.90;;;;;;4875720;29;20299;-95
2022/04/01 00:41:49;;;;;;;6.78;2.20;;;0.70;99.90;;;;;;4879298;29;20060;-94
2022/04/01 00:44:23;;;;;;;9.00;2.58;;;0.70;99.90;;;;;;4881556;29;20100;-95
2022/04/01 00:46:56;;;;;;;6.55;2.22;;;0.70;99.90;;;;;;4865838;29;20041;-93
2022/04/01 00:49:23;;;;;;;6.28;2.45;;;0.70;99.90;;;;;;4881642;29;20128;-94
2022/04/01 00:51:51;;;;;;;7.43;2.50;;;0.80;99.90;;;;;;4862980;29;20041;-95
2022/04/01 00:54:17;;;;;;;6.50;2.35;;;0.70;99.90;;;;;;4880803;29;20331;-93
2022/04/01 00:56:44;;;;;;;9.32;2.25;;;0.70;99.90;;;;;;4865972;29;20052;-94
2022/04/01 00:59:11;;;;;;;8.32;2.00;;;0.70;99.90;;;;;;4846442;29;20076;-94
2022/04/01 01:01:41;;;;;;;6.68;1.90;;;0.80;99.90;;;;;;4869360;29;20052;-90
2022/04/01 01:04:08;;;;;;;7.45;2.30;;;0.60;99.90;;;;;;4879995;29;20061;-96
2022/04/01 01:06:41;;;;;;;7.40;2.30;;;0.70;99.90;;;;;;4896151;29;20083;-95
2022/04/01 01:09:07;;;;;;;5.15;2.03;;;0.80;99.90;;;;;;4873490;29;20076;-94
2022/04/01 01:11:36;;;;;;;5.18;2.10;;;0.80;99.90;;;;;;4880960;29;20479;-95
2022/04/01 01:14:10;;;;;;;7.72;2.20;;;0.80;99.90;;;;;;4882230;29;20132;-96
2022/04/01 01:16:38;;;;;;;5.90;2.30;;;0.80;99.90;;;;;;4864560;29;20049;-94
2022/04/01 01:19:12;;;;;;;6.20;2.33;;;0.80;99.90;;;;;;4864186;29;20048;-92
2022/04/01 01:21:41;;;;;;;6.35;2.13;;;0.80;99.90;;;;;;4866693;29;20053;-94
2022/04/01 01:24:11;;;;;;;5.38;1.92;;;0.80;99.90;;;;;;4870886;29;20029;-93
2022/04/01 01:26:37;;;;;;;6.88;2.28;;;0.80;99.90;;;;;;4882486;29;20052;-95
2022/04/01 01:29:05;;;;;;;6.88;2.33;;;0.80;99.90;;;;;;4877414;29;20056;-95
2022/04/01 01:31:31;;;;;;;5.47;1.88;;;0.80;99.90;;;;;;4865585;29;20041;-93
2022/04/01 01:34:00;;;;;;;5.95;2.20;;;0.80;99.90;;;;;;4866533;29;20096;-96
2022/04/01 01:36:33;;;;;;;8.52;2.67;;;1.00;99.90;;;;;;4864067;29;20048;-95
2022/04/01 01:38:59;;;;;;;7.88;2.33;;;0.90;99.90;;;;;;4849455;29;20089;-93
2022/04/01 01:41:25;;;;;;;6.30;2.35;;;0.80;99.90;;;;;;4884635;29;20041;-95
2022/04/01 01:43:51;;;;;;;7.35;2.25;;;0.90;99.90;;;;;;4881360;29;20049;-91
2022/04/01 01:46:17;;;;;;;5.88;2.05;;;0.90;99.90;;;;;;4865817;29;20056;-93
2022/04/01 01:48:44;;;;;;;6.57;2.38;;;1.00;99.90;;;;;;4871996;29;20410;-93
2022/04/01 01:56:59;;;;;;;5.03;2.08;;;1.10;99.90;;;;;;4805133;29;20046;-89
2022/04/01 01:59:26;;;;;;;6.63;2.17;;;1.20;99.90;;;;;;4806529;29;20057;-92
2022/04/01 02:01:52;;;;;;;6.82;2.15;;;1.20;99.90;;;;;;4820394;29;20063;-94
2022/04/01 02:04:22;;;;;;;5.30;2.20;;;1.20;99.90;;;;;;4785982;29;20043;-94
2022/04/01 02:06:49;;;;;;;6.93;2.15;;;1.20;99.90;;;;;;4800497;29;20081;-95
2022/04/01 02:09:16;;;;;;;5.97;2.17;;;1.20;99.90;;;;;;4801764;29;20360;-94
2022/04/01 02:11:41;;;;;;;4.10;1.80;;;1.20;99.90;;;;;;4807960;29;20106;-92
2022/04/01 02:14:07;;;;;;;7.22;2.20;;;1.20;99.90;;;;;;4808135;29;20035;-92
2022/04/01 02:16:33;;;;;;;6.60;2.28;;;1.30;99.90;;;;;;4818602;29;20107;-95
2022/04/01 02:18:59;;;;;;;7.63;2.17;;;1.20;99.90;;;;;;4802311;29;20059;-95
2022/04/01 02:21:27;;;;;;;6.97;2.08;;;1.20;99.90;;;;;;4814413;29;20098;-93
2022/04/01 02:23:52;;;;;;;6.72;2.17;;;1.20;99.90;;;;;;4802909;29;20054;-94
2022/04/01 02:26:18;;;;;;;7.30;2.17;;;1.20;99.90;;;;;;4870934;29;20131;-92
2022/04/01 02:28:44;;;;;;;6.97;2.35;;;1.10;99.90;;;;;;4877419;29;20070;-95
2022/04/01 02:31:11;;;;;;;6.53;2.10;;;1.10;99.90;;;;;;4858083;29;20051;-95
2022/04/01 02:33:37;;;;;;;6.30;2.10;;;1.20;99.90;;;;;;4886684;29;20057;-96
2022/04/01 02:36:06;;;;;;;6.32;2.35;;;1.10;99.90;;;;;;4882469;29;20051;-93
2022/04/01 02:38:32;;;;;;;6.97;1.92;;;1.00;99.90;;;;;;4869647;29;20045;-95
2022/04/01 02:40:59;;;;;;;5.20;2.10;;;1.00;99.90;;;;;;4867381;29;20098;-93
2022/04/01 02:43:26;;;;;;;5.68;2.22;;;1.00;99.90;;;;;;4866565;29;20055;-94
2022/04/01 02:45:52;;;;;;;5.65;2.35;;;1.00;99.90;;;;;;4848718;29;20055;-96
2022/04/01 02:48:19;;;;;;;6.07;2.40;;;0.90;99.90;;;;;;4861087;29;20080;-92
2022/04/01 02:50:47;;;;;;;8.13;2.22;;;0.90;99.90;;;;;;4868771;29;20052;-95
2022/04/01 02:53:15;;;;;;;7.53;2.65;;;0.90;99.90;;;;;;4883110;29;20036;-93
2022/04/01 02:55:41;;;;;;;9.27;2.45;;;0.80;99.90;;;;;;4903877;29;20049;-94
2022/04/01 02:58:10;;;;;;;5.65;1.95;;;0.80;99.90;;;;;;4901488;29;20131;-93
2022/04/01 03:00:40;;;;;;;7.30;2.40;;;0.80;99.90;;;;;;4867349;29;20041;-95
2022/04/01 03:03:07;;;;;;;6.22;2.30;;;0.80;99.90;;;;;;4876773;29;20059;-96
2022/04/01 03:05:37;;;;;;;7.57;2.30;;;0.80;99.90;;;;;;4899262;29;20045;-91
2022/04/01 03:08:05;;;;;;;7.95;2.88;;;0.80;99.90;;;;;;4864674;29;20052;-93
2022/04/01 03:10:42;;;;;;;6.35;2.08;;;0.80;99.90;;;;;;4870931;29;20049;-95
2022/04/01 03:13:08;;;;;;;7.47;2.53;;;0.80;99.90;;;;;;4885400;29;20151;-90
2022/04/01 03:15:35;;;;;;;6.82;2.28;;;0.80;99.90;;;;;;4904736;29;20043;-94
2022/04/01 03:18:04;;;;;;;5.90;2.10;;;0.90;99.90;;;;;;4890546;29;20100;-95
2022/04/01 03:20:33;;;;;;;5.65;2.00;;;0.90;99.90;;;;;;4884603;29;20143;-95
2022/04/01 03:22:59;;;;;;;4.45;1.92;;;0.90;99.90;;;;;;4881148;29;20386;-91
2022/04/01 03:25:26;;;;;;;7.68;2.08;;;0.90;99.90;;;;;;4888344;29;20048;-92
2022/04/01 03:27:52;;;;;;;8.70;2.10;;;1.00;99.90;;;;;;4889757;29;20105;-95
2022/04/01 03:30:17;;;;;;;5.28;1.92;;;1.00;99.90;;;;;;4887036;29;20049;-92
2022/04/01 03:32:45;;;;;;;5.88;2.03;;;1.00;99.90;;;;;;4886691;29;20402;-91
2022/04/01 03:35:16;;;;;;;5.43;1.90;;;1.00;99.90;;;;;;4884457;29;20057;-94
2022/04/01 03:37:43;;;;;;;5.68;1.83;;;1.10;99.90;;;;;;4877101;29;20168;-93
2022/04/01 03:40:10;;;;;;;5.88;1.95;;;1.10;99.90;;;;;;4876638;29;20048;-94
2022/04/01 03:42:35;;;;;;;4.70;1.90;;;1.10;99.90;;;;;;4899616;29;20045;-93
2022/04/01 03:45:06;;;;;;;6.50;2.17;;;1.10;99.90;;;;;;4884739;29;20112;-94
2022/04/01 03:47:41;;;;;;;8.27;1.88;;;1.20;99.90;;;;;;4883323;29;20051;-95
2022/04/01 03:50:15;;;;;;;3.72;1.60;;;1.10;99.90;;;;;;4884044;29;20180;-95
2022/04/01 03:52:51;;;;;;;6.00;1.85;;;1.20;99.90;;;;;;4899440;29;20430;-95
2022/04/01 03:55:26;;;;;;;5.22;1.77;;;1.20;99.90;;;;;;4885816;29;20060;-92
2022/04/01 03:57:55;;;;;;;4.80;1.85;;;1.30;99.90;;;;;;4884448;29;20060;-94
2022/04/01 04:00:21;;;;;;;6.05;1.67;;;1.30;99.90;;;;;;4890027;29;20057;-95
2022/04/01 04:02:46;;;;;;;5.40;1.70;;;1.30;99.90;;;;;;4882701;29;20135;-94
2022/04/01 04:05:13;;;;;;;5.55;2.03;;;1.30;99.90;;;;;;4879555;29;20486;-96
2022/04/01 04:07:40;;;;;;;7.85;2.35;;;1.40;99.90;;;;;;4884688;29;20067;-96
2022/04/01 04:10:07;;;;;;;6.88;1.98;;;1.30;99.90;;;;;;4866740;29;20077;-92
2022/04/01 04:12:35;;;;;;;5.53;2.00;;;1.40;99.90;;;;;;4877082;29;20044;-94
2022/04/01 04:15:02;;;;;;;4.45;1.80;;;1.50;99.90;;;;;;4881539;29;20434;-93
2022/04/01 04:17:46;;;;;;;5.82;2.38;;;1.50;99.90;;;;;;4882821;29;20045;-93
2022/04/01 04:20:40;;;;;;;6.65;2.22;;;1.50;99.90;;;;;;4872337;29;20068;-96
2022/04/01 04:23:17;;;;;;;6.90;2.10;;;1.60;99.90;;;;;;4881185;29;20731;-93
2022/04/01 04:26:00;;;;;;;6.22;1.83;;;1.50;99.90;;;;;;4888900;29;20060;-95
2022/04/01 04:28:27;;;;;;;5.38;2.00;;;1.50;99.90;;;;;;4882240;29;20132;-93
2022/04/01 04:30:55;;;;;;;5.28;1.60;;;1.50;99.90;;;;;;4880933;29;20072;-96
2022/04/01 04:33:28;;;;;;;5.55;1.83;;;1.50;99.90;;;;;;4884649;29;20422;-95
2022/04/01 04:35:53;;;;;;;5.95;1.92;;;1.60;99.90;;;;;;4882825;29;20040;-95
2022/04/01 04:38:21;;;;;;;7.00;2.28;;;1.60;99.90;;;;;;4881495;29;20135;-93
2022/04/01 04:40:47;;;;;;;5.18;1.73;;;1.50;99.90;;;;;;4882847;29;20059;-94
2022/04/01 04:43:18;;;;;;;6.57;1.80;;;1.50;99.90;;;;;;4880641;29;20611;-93
2022/04/01 04:45:47;;;;;;;5.90;2.13;;;1.60;99.90;;;;;;4895017;29;20044;-94
2022/04/01 04:48:13;;;;;;;5.38;1.98;;;1.60;99.90;;;;;;4899436;29;20056;-95
2022/04/01 04:50:43;;;;;;;5.50;1.85;;;1.60;99.90;;;;;;4882060;29;20067;-94
2022/04/01 04:53:12;;;;;;;4.82;1.80;;;1.60;99.90;;;;;;4887548;29;20045;-94
2022/04/01 04:55:39;;;;;;;6.65;1.88;;;1.60;99.90;;;;;;4883091;29;20036;-95
2022/04/01 04:58:08;;;;;;;5.22;1.88;;;1.50;99.90;;;;;;4896947;29;20477;-93
2022/04/01 05:00:35;;;;;;;5.60;1.80;;;1.50;99.90;;;;;;4872076;29;20056;-94
2022/04/01 05:03:24;;;;;;;4.43;1.90;;;1.50;99.90;;;;;;4877716;29;20067;-94
2022/04/01 05:05:56;;;;;;;4.30;1.40;;;1.50;99.90;;;;;;4897962;29;20050;-96
2022/04/01 05:08:46;;;;;;;6.35;1.98;;;1.50;99.90;;;;;;4866866;29;20049;-95
2022/04/01 05:11:32;;;;;;;6.78;2.03;;;1.50;99.90;;;;;;4893574;29;20045;-95
2022/04/01 05:14:11;;;;;;;5.35;1.88;;;1.50;99.90;;;;;;4867744;29;20041;-95
2022/04/01 05:16:59;;;;;;;5.00;1.58;;;1.50;99.90;;;;;;4901465;29;20045;-95
2022/04/01 05:19:30;;;;;;;5.85;1.73;;;1.60;99.90;;;;;;4900248;29;20049;-96
2022/04/01 05:22:22;;;;;;;5.45;1.58;;;1.60;99.90;;;;;;4886812;29;20095;-96
2022/04/01 05:24:51;;;;;;;3.45;1.33;;;1.60;99.90;;;;;;4885658;29;20044;-94
2022/04/01 05:27:29;;;;;;;4.40;1.60;;;1.60;99.90;;;;;;4899666;29;20044;-95
2022/04/01 05:30:16;;;;;;;8.13;2.08;;;1.60;99.90;;;;;;4894555;29;20435;-95
2022/04/01 05:32:58;;;;;;;6.03;1.40;;;1.70;99.90;;;;;;4900571;29;20032;-95
2022/04/01 05:35:29;;;;;;;4.38;1.40;;;1.60;99.90;;;;;;4880712;29;20023;-94
2022/04/01 05:37:58;;;;;;;4.53;1.63;;;1.70;99.90;;;;;;4873657;29;20052;-95
2022/04/01 05:40:24;;;;;;;3.72;1.23;;;1.70;99.90;;;;;;4869150;29;20435;-94
2022/04/01 05:42:52;;;;;;;5.95;1.50;;;1.70;99.90;;;;;;4881381;29;20530;-95
2022/04/01 05:45:19;;;;;;;6.72;1.50;;;1.70;99.90;;;;;;4879889;29;20041;-93
2022/04/01 05:47:47;;;;;;;4.57;1.35;;;1.70;99.90;;;;;;4876819;29;20057;-96
2022/04/01 05:50:18;;;;;;;4.07;1.27;;;1.80;99.90;;;;;;4878627;29;20080;-94
2022/04/01 05:52:47;;;;;;;3.67;1.20;;;1.70;99.90;;;;;;4859235;29;20041;-95
2022/04/01 05:55:15;;;;;;;5.63;1.60;;;1.80;99.90;;;;;;4895867;29;20029;-94
2022/04/01 05:57:41;;;;;;;6.85;2.65;;;1.80;99.90;;;;;;4885986;29;20033;-95
2022/04/01 06:00:07;;;;;;;4.47;1.40;;;1.80;99.90;;;;;;4895254;29;20052;-95
2022/04/01 06:02:32;;;;;;;4.65;1.20;;;1.80;99.90;;;;;;4861179;29;20128;-95
2022/04/01 06:05:46;;;;;;;4.70;1.40;;;1.80;99.90;;;;;;4856731;29;20053;-90
2022/04/01 06:08:44;;;;;;;4.75;1.70;;;1.80;99.90;;;;;;4786875;29;20062;-95
2022/04/01 06:11:19;;;;;;;7.22;1.85;;;1.90;99.90;;;;;;4771041;29;20135;-95
2022/04/01 06:13:53;;;;;;;5.03;1.70;;;1.90;99.90;;;;;;4780766;29;20051;-95
2022/04/01 06:16:47;;;;;;;6.78;1.48;;;2.00;99.90;;;;;;4796760;29;20050;-94
2022/04/01 06:19:24;;;;;;;6.30;1.77;;;2.00;99.90;;;;;;4788327;29;20066;-96
2022/04/01 06:22:05;;;;;;;5.20;1.70;;;2.00;99.90;;;;;;4792717;29;20046;-95
2022/04/01 06:25:01;;;;;;;4.95;1.65;;;2.10;99.90;;;;;;4811038;29;20114;-94
2022/04/01 06:27:48;;;;;;;7.00;1.70;;;2.10;99.90;;;;;;4776026;29;20131;-92
2022/04/01 06:30:17;;;;;;;4.70;1.80;;;2.10;99.90;;;;;;4792797;29;20055;-94
2022/04/01 06:32:56;;;;;;;5.18;1.45;;;2.20;99.90;;;;;;4786556;29;20735;-94
2022/04/01 06:35:29;;;;;;;3.97;1.50;;;2.20;99.90;;;;;;4771858;29;20123;-92
2022/04/01 06:38:06;;;;;;;6.15;1.55;;;2.30;99.90;;;;;;4795306;29;20062;-93
2022/04/01 06:40:45;;;;;;;3.80;1.23;;;2.30;99.90;;;;;;4800980;29;20113;-93
2022/04/01 06:43:11;;;;;;;6.10;2.15;;;2.40;99.90;;;;;;4814055;29;20452;-93
2022/04/01 06:45:36;;;;;;;5.97;1.70;;;2.40;99.90;;;;;;4879493;29;20049;-92
2022/04/01 06:48:02;;;;;;;4.88;1.52;;;2.40;99.90;;;;;;4860351;29;20060;-92
2022/04/01 06:50:28;;;;;;;5.78;1.58;;;2.40;99.90;;;;;;4847790;29;20124;-95
2022/04/01 06:52:53;;;;;;;6.57;1.70;;;2.50;99.90;;;;;;4863264;29;20143;-94
2022/04/01 06:55:19;;;;;;;5.07;1.65;;;2.50;99.90;;;;;;4861466;29;20387;-93
2022/04/01 06:57:45;;;;;;;8.40;2.50;;;2.50;99.90;;;;;;4879975;29;20073;-93
2022/04/01 07:00:13;;;;;;;4.80;1.50;;;2.50;99.90;;;;;;4878146;29;20055;-94
2022/04/01 07:02:41;;;;;;;4.28;1.75;;;2.60;99.90;;;;;;4880209;29;20041;-95
2022/04/01 07:05:08;;;;;;;6.15;1.58;;;2.60;99.90;;;;;;4878007;29;20053;-93
2022/04/01 07:07:34;;;;;;;4.93;1.30;;;2.60;99.90;;;;;;4867339;29;20044;-94
2022/04/01 07:10:01;;;;;;;3.67;1.38;;;2.60;99.90;;;;;;4857142;29;20056;-92
2022/04/01 07:12:27;;;;;;;5.53;1.95;;;2.70;99.90;;;;;;4865045;29;20094;-92
2022/04/01 07:14:52;;;;;;;7.10;2.78;;;2.80;99.90;;;;;;4865840;29;20371;-94
2022/04/01 07:17:18;;;;;;;4.20;1.45;;;2.80;99.90;;;;;;4883426;29;20079;-94
2022/04/01 07:19:44;;;;;;;5.15;1.50;;;2.70;99.90;;;;;;4867597;29;20051;-94
2022/04/01 07:22:09;;;;;;;4.72;1.80;;;2.80;99.90;;;;;;4870097;29;20041;-95
2022/04/01 07:24:35;;;;;;;5.97;1.70;;;2.90;99.90;;;;;;4884522;29;20377;-91
2022/04/01 07:27:01;;;;;;;5.40;1.60;;;2.90;99.90;;;;;;4864906;29;20041;-93
2022/04/01 07:29:27;;;;;;;2.95;1.13;;;2.90;99.90;;;;;;4881542;29;20049;-93
2022/04/01 07:34:42;;;;;;;5.05;1.58;;;2.90;99.90;;;;;;4880193;29;20060;-92
2022/04/01 07:37:08;;;;;;;4.40;1.70;;;2.90;99.90;;;;;;4862565;29;20041;-91
2022/04/01 07:39:34;;;;;;;5.65;1.75;;;2.90;99.90;;;;;;4869869;29;20422;-94
2022/04/01 07:42:00;;;;;;;6.30;2.33;;;2.90;99.90;;;;;;4876428;29;20122;-94
2022/04/01 07:44:26;;;;;;;4.50;2.15;;;2.90;99.90;;;;;;4865889;29;20383;-93
2022/04/01 07:46:52;;;;;;;5.32;1.83;;;3.00;99.90;;;;;;4865246;29;20110;-95
2022/04/01 07:49:18;;;;;;;5.68;2.03;;;3.00;99.90;;;;;;4868164;29;20105;-96
2022/04/01 07:51:45;;;;;;;4.85;2.05;;;3.10;99.90;;;;;;4864130;29;20056;-95
2022/04/01 07:54:11;;;;;;;4.10;2.00;;;3.00;99.90;;;;;;4880874;29;20056;-93
2022/04/01 07:56:40;;;;;;;5.15;1.83;;;3.10;99.90;;;;;;4865047;29;20045;-96
2022/04/01 07:59:10;;;;;;;6.07;2.15;;;3.00;99.90;;;;;;4865564;29;20209;-94
2022/04/01 08:01:36;;;;;;;4.95;1.90;;;3.10;99.90;;;;;;4865433;29;20499;-93
2022/04/01 08:04:02;;;;;;;8.35;2.28;;;3.10;99.90;;;;;;4878607;29;20037;-94
2022/04/01 08:06:29;;;;;;;6.72;2.40;;;3.10;99.90;;;;;;4860740;29;20109;-93
2022/04/01 08:08:55;;;;;;;7.28;2.65;;;3.00;99.90;;;;;;4883026;29;20106;-93
2022/04/01 08:11:23;;;;;;;6.40;3.25;;;3.00;99.90;;;;;;4864461;29;20053;-90
2022/04/01 08:13:49;;;;;;;5.70;2.50;;;3.00;99.90;;;;;;4861935;29;20126;-90
2022/04/01 08:16:15;;;;;;;5.93;2.55;;;3.10;99.90;;;;;;4877223;29;20048;-93
2022/04/01 08:18:41;;;;;;;7.10;2.60;;;3.00;99.90;;;;;;4880242;29;20097;-95
2022/04/01 08:21:06;;;;;;;8.40;4.15;;;3.10;99.90;;;;;;4879449;29;20053;-95
2022/04/01 08:23:35;;;;;;;7.50;2.75;;;3.10;99.90;;;;;;4863905;29;20076;-96
2022/04/01 08:26:05;;;;;;;7.40;2.85;;;3.10;99.90;;;;;;4851677;29;20084;-90
2022/04/01 08:28:31;;;;;;;6.38;2.55;;;3.10;99.90;;;;;;4880144;29;20056;-93
2022/04/01 08:30:56;;;;;;;7.63;2.90;;;3.10;99.90;;;;;;4860607;29;20095;-95
2022/04/01 08:33:22;;;;;;;7.53;2.92;;;3.20;99.90;;;;;;4862647;29;20068;-94
2022/04/01 08:35:48;;;;;;;6.72;3.53;;;3.20;99.90;;;;;;4863374;29;20088;-93
2022/04/01 08:38:14;;;;;;;8.65;3.10;;;3.30;99.90;;;;;;4862195;29;20045;-94
2022/04/01 08:40:40;;;;;;;9.20;3.47;;;3.30;99.90;;;;;;4859945;29;20049;-92
2022/04/01 08:43:06;;;;;;;9.05;3.67;;;3.30;99.90;;;;;;4846756;29;20089;-92
2022/04/01 08:45:33;;;;;;;7.88;3.88;;;3.20;99.90;;;;;;4853851;29;20558;-90
2022/04/01 08:48:07;;;;;;;8.93;3.70;;;3.30;99.90;;;;;;4860714;29;20069;-95
2022/04/01 08:50:33;;;;;;;8.18;4.05;;;3.40;99.90;;;;;;4865223;29;20045;-93
2022/04/01 08:53:00;;;;;;;8.90;3.97;;;3.40;99.90;;;;;;4845899;29;20037;-94
2022/04/01 08:55:30;;;;;;;9.77;4.15;;;3.30;99.90;;;;;;4844093;29;20088;-92
2022/04/01 08:57:55;;;;;;;10.20;4.18;;;3.30;99.90;;;;;;4862493;29;20061;-95
2022/04/01 09:00:22;;;;;;;9.25;4.50;;;3.40;99.90;;;;;;4878659;29;20047;-92
2022/04/01 09:03:08;;;;;;;8.85;4.25;;;3.40;99.90;;;;;;4846551;29;20411;-92
2022/04/01 09:05:35;;;;;;;9.07;4.40;;;3.40;99.90;;;;;;4863376;29;20052;-92
2022/04/01 09:08:08;;;;;;;10.68;4.88;;;3.30;99.90;;;;;;4859158;29;20056;-89
2022/04/01 09:10:55;;;;;;;8.95;4.82;;;3.20;99.90;;;;;;4876519;29;20368;-95
2022/04/01 09:13:24;;;;;;;9.82;4.68;;;3.30;99.90;;;;;;4861288;29;20052;-91
2022/04/01 09:15:50;;;;;;;9.55;5.00;;;3.30;99.90;;;;;;4859507;29;20052;-89
2022/04/01 09:18:36;;;;;;;10.63;5.35;;;3.40;99.90;;;;;;4844811;29;20052;-94
2022/04/01 09:21:03;;;;;;;11.93;5.63;;;3.30;99.90;;;;;;4875688;29;20055;-94
2022/04/01 09:23:28;;;;;;;9.23;5.25;;;3.30;99.90;;;;;;4877557;29;20448;-90
2022/04/01 09:25:55;;;;;;;10.23;5.72;;;3.40;99.90;;;;;;4874234;29;20041;-88
2022/04/01 09:28:26;;;;;;;9.70;4.90;;;3.40;99.90;;;;;;4861316;29;20223;-95
2022/04/01 09:31:02;;;;;;;10.07;4.95;;;3.50;99.90;;;;;;4859255;29;20053;-92
2022/04/01 09:33:45;;;;;;;10.02;5.47;;;3.50;99.90;;;;;;4875582;29;20388;-92
2022/04/01 09:36:21;;;;;;;11.75;5.35;;;3.50;99.90;;;;;;4855808;29;20057;-91
2022/04/01 09:39:06;;;;;;;10.85;5.38;;;3.50;99.90;;;;;;4872640;29;20085;-92
2022/04/01 09:41:34;;;;;;;10.45;5.47;;;3.50;99.90;;;;;;4859022;29;20053;-91
2022/04/01 09:44:21;;;;;;;11.65;6.05;;;3.50;99.90;;;;;;4869050;29;20041;-94
2022/04/01 09:46:50;;;;;;;9.27;4.85;;;3.50;99.90;;;;;;4861740;29;20072;-90
2022/04/01 09:49:40;;;;;;;11.07;6.22;;;3.60;99.90;;;;;;4859585;29;20143;-91
2022/04/01 09:52:08;;;;;;;11.70;5.95;;;3.70;99.90;;;;;;4858347;29;20487;-93
2022/04/01 09:54:41;;;;;;;11.40;5.55;;;3.60;99.90;;;;;;4876992;29;20084;-91
2022/04/01 09:57:08;;;;;;;10.05;5.60;;;3.60;99.90;;;;;;4854992;29;20049;-92
2022/04/01 09:59:35;;;;;;;11.35;5.63;;;3.40;99.90;;;;;;4859838;29;20147;-93
2022/04/01 10:02:00;;;;;;;11.52;5.75;;;3.60;99.90;;;;;;4859380;29;20057;-95
2022/04/01 10:04:26;;;;;;;11.65;6.28;;;3.70;99.90;;;;;;4853206;29;20068;-93
2022/04/01 10:06:52;;;;;;;12.05;6.13;;;3.70;99.90;;;;;;4877426;29;20479;-90
2022/04/01 10:09:20;;;;;;;10.73;6.45;;;3.80;99.90;;;;;;4880086;29;20052;-94
2022/04/01 10:11:48;;;;;;;10.57;5.95;;;3.80;99.90;;;;;;4882142;29;20061;-91
2022/04/01 10:14:20;;;;;;;13.18;7.18;;;4.00;99.90;;;;;;4864134;29;20136;-92
2022/04/01 10:16:50;;;;;;;11.85;6.72;;;4.00;99.90;;;;;;4888604;29;20040;-90
2022/04/01 10:19:29;;;;;;;10.55;5.85;;;3.80;99.90;;;;;;4897397;29;20066;-95
2022/04/01 10:21:55;;;;;;;11.00;6.35;;;3.70;99.90;;;;;;4876523;29;20057;-91
2022/04/01 10:24:33;;;;;;;10.68;6.72;;;3.60;99.90;;;;;;4869885;29;20444;-93
2022/04/01 10:27:23;;;;;;;12.73;6.78;;;3.70;99.90;;;;;;4863305;29;20041;-90
2022/04/01 10:29:50;;;;;;;11.05;6.70;;;3.60;99.90;;;;;;4881476;29;20064;-91
2022/04/01 10:32:26;;;;;;;10.68;6.80;;;3.80;99.90;;;;;;4860628;29;20045;-90
2022/04/01 10:34:54;;;;;;;13.50;7.25;;;3.90;99.90;;;;;;4859079;29;20072;-93
2022/04/01 10:37:25;;;;;;;11.55;6.88;;;4.10;99.90;;;;;;4867494;29;20117;-93
2022/04/01 10:39:59;;;;;;;12.10;6.78;;;4.10;99.90;;;;;;4891529;29;20066;-94
2022/04/01 10:42:34;;;;;;;11.70;6.90;;;4.10;99.90;;;;;;4874141;29;20057;-91
2022/04/01 10:45:16;;;;;;;9.90;5.85;;;4.00;99.90;;;;;;4880781;29;20055;-94
2022/04/01 10:53:33;;;;;;;9.93;4.95;;;4.00;99.90;;;;;;4907324;29;20052;-94
2022/04/01 10:56:25;;;;;;;9.43;4.03;;;4.10;99.90;;;;;;4885835;29;20056;-95
2022/04/01 10:59:00;;;;;;;8.38;3.63;;;3.90;99.90;;;;;;4882433;29;20055;-94
2022/04/01 11:01:25;;;;;;;7.75;3.67;;;3.90;99.90;;;;;;4886648;29;20132;-93
2022/04/01 11:03:52;;;;;;;9.00;4.07;;;4.00;99.90;;;;;;4886503;29;20068;-94
2022/04/01 11:06:26;;;;;;;8.05;4.00;;;4.10;99.90;;;;;;4899581;29;20049;-94
2022/04/01 11:08:55;;;;;;;8.43;4.05;;;4.00;99.90;;;;;;4886107;29;20052;-96
2022/04/01 11:11:21;;;;;;;8.07;3.72;;;4.10;99.90;;;;;;4904247;29;20048;-92
2022/04/01 11:14:08;;;;;;;7.43;3.53;;;4.20;99.90;;;;;;4886162;29;20049;-94
2022/04/01 11:16:47;;;;;;;6.07;2.92;;;4.10;99.90;;;;;;4868145;29;20071;-95
2022/04/01 11:19:25;;;;;;;7.85;3.35;;;4.00;99.90;;;;;;4901673;29;20053;-92
2022/04/01 11:21:51;;;;;;;7.70;3.20;;;4.00;99.90;;;;;;4871130;29;20055;-94
2022/04/01 11:24:29;;;;;;;8.68;3.03;;;4.10;99.90;;;;;;4881497;29;20315;-94
2022/04/01 11:26:55;;;;;;;8.23;3.00;;;4.10;99.90;;;;;;4861649;29;20040;-94
2022/04/01 11:29:23;;;;;;;6.95;2.95;;;4.10;99.90;;;;;;4885864;29;20060;-94
2022/04/01 11:31:49;;;;;;;7.50;3.03;;;4.00;99.90;;;;;;4901422;29;20092;-96
2022/04/01 11:34:15;;;;;;;8.82;3.10;;;4.00;99.90;;;;;;4867087;29;20044;-93
2022/04/01 11:36:47;;;;;;;9.02;3.03;;;4.00;99.90;;;;;;4881004;29;20045;-94
2022/04/01 11:39:16;;;;;;;6.40;3.20;;;4.10;99.90;;;;;;4894594;29;20128;-93
2022/04/01 11:41:47;;;;;;;7.65;2.72;;;4.20;99.90;;;;;;4882203;29;20049;-94
2022/04/01 11:44:14;;;;;;;6.70;3.00;;;4.20;99.90;;;;;;4884084;29;20051;-93
2022/04/01 11:46:40;;;;;;;6.57;3.00;;;4.00;99.90;;;;;;4906623;29;20068;-93
2022/04/01 11:49:09;;;;;;;5.93;2.65;;;4.00;99.90;;;;;;4904015;29;20076;-95
2022/04/01 11:51:38;;;;;;;7.15;2.80;;;4.10;99.90;;;;;;4878885;29;20144;-93
2022/04/01 11:54:04;;;;;;;5.63;2.63;;;4.20;99.90;;;;;;4884688;29;20072;-95
2022/04/01 11:56:33;;;;;;;6.03;2.80;;;4.30;99.90;;;;;;4891035;29;20437;-94
2022/04/01 11:59:01;;;;;;;7.22;3.05;;;4.30;99.90;;;;;;4882636;29;20047;-94
2022/04/01 12:01:32;;;;;;;6.05;2.60;;;4.40;99.90;;;;;;4881823;29;20040;-91
2022/04/01 12:04:11;;;;;;;7.78;2.78;;;4.50;99.90;;;;;;4890377;29;20076;-94
2022/04/01 12:09:32;;;;;;;6.35;2.45;;;4.50;99.90;;;;;;4870933;29;20061;-93
2022/04/01 12:12:04;;;;;;;6.85;2.40;;;4.50;99.90;;;;;;4865834;29;20108;-95
2022/04/01 12:14:31;;;;;;;6.78;2.60;;;4.50;99.90;;;;;;4881144;29;20064;-93
2022/04/01 12:16:57;;;;;;;7.10;2.33;;;4.50;99.90;;;;;;4882126;29;20052;-94
2022/04/01 12:19:23;;;;;;;5.32;2.35;;;4.30;99.90;;;;;;4865222;29;20500;-95
2022/04/01 12:21:51;;;;;;;6.95;2.60;;;4.30;99.90;;;;;;4898660;29;20048;-95
2022/04/01 12:24:18;;;;;;;5.35;2.05;;;4.40;99.90;;;;;;4898133;29;20064;-93
2022/04/01 12:26:46;;;;;;;9.88;2.40;;;4.40;99.90;;;;;;4866227;29;20051;-92
2022/04/01 12:29:23;;;;;;;5.68;2.55;;;4.30;99.90;;;;;;4882894;29;20040;-95
2022/04/01 12:31:57;;;;;;;5.93;2.20;;;4.50;99.90;;;;;;4899758;29;20040;-96
2022/04/01 12:34:25;;;;;;;4.72;2.15;;;4.60;99.90;;;;;;4897045;29;20099;-94
2022/04/01 12:36:52;;;;;;;5.45;2.17;;;4.60;99.90;;;;;;4881834;29;20050;-92
2022/04/01 12:39:18;;;;;;;6.13;2.22;;;4.70;99.90;;;;;;4880692;29;20051;-93
2022/04/01 12:42:06;;;;;;;5.50;2.08;;;4.70;99.90;;;;;;4882721;29;20040;-93
2022/04/01 12:44:33;;;;;;;6.72;2.90;;;4.80;99.90;;;;;;4856905;29;20041;-94
2022/04/01 12:47:03;;;;;;;6.30;2.30;;;4.90;99.90;;;;;;4872186;29;20061;-95
2022/04/01 12:49:32;;;;;;;5.60;2.20;;;5.00;99.90;;;;;;4881040;29;20080;-95
2022/04/01 12:52:02;;;;;;;5.13;2.28;;;5.00;99.90;;;;;;4896242;29;20047;-95
2022/04/01 12:54:38;;;;;;;9.05;4.80;;;5.10;99.90;;;;;;4896966;29;20049;-95
2022/04/01 12:57:06;;;;;;;6.38;2.10;;;5.20;99.90;;;;;;4883697;29;20057;-94
2022/04/01 12:59:35;;;;;;;5.28;2.08;;;5.20;99.90;;;;;;4880294;29;20135;-94
2022/04/01 13:02:05;;;;;;;5.78;2.30;;;5.10;99.90;;;;;;4896353;29;20128;-94
2022/04/01 13:04:42;;;;;;;5.88;2.28;;;5.10;99.90;;;;;;4880051;29;20131;-94
2022/04/01 13:07:18;;;;;;;5.88;2.40;;;5.10;99.90;;;;;;4878356;29;20049;-91
2022/04/01 13:09:44;;;;;;;6.35;2.22;;;5.20;99.90;;;;;;4884168;29;20092;-95
2022/04/01 13:12:20;;;;;;;5.75;2.10;;;5.30;99.90;;;;;;4878942;29;20076;-93
2022/04/01 13:14:54;;;;;;;5.68;2.20;;;5.30;99.90;;;;;;4897107;29;20076;-91
2022/04/01 13:17:20;;;;;;;5.97;2.15;;;5.20;99.90;;;;;;4880306;29;20049;-93
2022/04/01 13:19:49;;;;;;;6.75;2.17;;;5.10;99.90;;;;;;4880792;29;20064;-96
2022/04/01 13:22:14;;;;;;;6.60;2.55;;;5.20;99.90;;;;;;4879295;29;20079;-94
2022/04/01 13:24:48;;;;;;;4.45;2.10;;;5.20;99.90;;;;;;4898570;29;20049;-92
2022/04/01 13:27:18;;;;;;;6.70;2.65;;;5.20;99.90;;;;;;4881174;29;20537;-96